createdAt,value
2023-02-02T00:01:25.624Z,65.18
2023-02-02T00:03:55.885Z,64.89
2023-02-02T00:06:25.920Z,65.50
2023-02-02T00:08:54.600Z,65.64
2023-02-02T00:11:23.001Z,66.02
2023-02-02T00:13:52.882Z,66.21
2023-02-02T00:16:39.146Z,66.62
2023-02-02T00:19:11.347Z,66.13
2023-02-02T00:21:39.777Z,66.64
2023-02-02T00:24:09.045Z,66.81
2023-02-02T00:26:38.101Z,67.14
2023-02-02T00:29:09.469Z,66.92
2023-02-02T00:31:37.792Z,67.00
2023-02-02T00:34:06.309Z,67.04
2023-02-02T00:36:34.624Z,67.22
2023-02-02T00:39:02.972Z,67.14
2023-02-02T00:41:31.456Z,67.64
2023-02-02T00:44:17.394Z,67.13
2023-02-02T00:46:47.133Z,67.71
2023-02-02T00:49:15.438Z,67.30
2023-02-02T00:51:43.804Z,67.70
2023-02-02T00:54:14.296Z,67.93
2023-02-02T00:56:42.891Z,67.64
2023-02-02T00:59:11.236Z,67.89
2023-02-02T01:01:39.700Z,67.72
2023-02-02T01:04:09.447Z,67.98
2023-02-02T01:06:37.990Z,67.52
2023-02-02T01:09:06.428Z,67.55
2023-02-02T01:11:34.784Z,67.81
2023-02-02T01:14:03.023Z,67.82
2023-02-02T01:16:31.504Z,67.51
2023-02-02T01:18:59.863Z,67.24
2023-02-02T01:21:29.566Z,66.95
2023-02-02T01:23:57.989Z,67.17
2023-02-02T01:26:26.328Z,67.46
2023-02-02T01:28:54.740Z,67.00
2023-02-02T01:31:25.358Z,67.03
2023-02-02T01:33:53.716Z,67.12
2023-02-02T01:36:25.169Z,67.16
2023-02-02T01:38:54.826Z,67.54
2023-02-02T01:41:24.978Z,67.33
2023-02-02T01:43:59.495Z,67.48
2023-02-02T01:46:30.039Z,67.59
2023-02-02T01:49:03.627Z,67.85
2023-02-02T01:51:42.826Z,67.60
2023-02-02T01:54:21.863Z,67.77
2023-02-02T01:56:55.132Z,67.75
2023-02-02T01:59:23.899Z,67.53
2023-02-02T02:01:55.041Z,67.93
2023-02-02T02:04:25.587Z,67.91
2023-02-02T02:06:54.296Z,68.15
2023-02-02T02:09:24.063Z,68.12
2023-02-02T02:11:54.349Z,68.09
2023-02-02T02:14:41.448Z,68.05
2023-02-02T02:17:26.106Z,68.29
2023-02-02T02:21:01.866Z,67.92
2023-02-02T02:24:29.362Z,68.34
2023-02-02T02:27:23.195Z,67.55
2023-02-02T02:30:15.163Z,67.96
2023-02-02T02:32:49.962Z,67.59
2023-02-02T02:35:30.620Z,67.91
2023-02-02T02:38:07.580Z,67.53
2023-02-02T02:40:38.955Z,68.14
2023-02-02T02:43:11.562Z,67.37
2023-02-02T02:45:40.977Z,68.02
2023-02-02T02:48:11.403Z,67.72
2023-02-02T02:50:40.451Z,67.55
2023-02-02T02:53:12.982Z,67.82
2023-02-02T02:55:49.899Z,67.77
2023-02-02T02:58:21.800Z,68.10
2023-02-02T03:00:59.216Z,68.38
2023-02-02T03:03:49.033Z,67.88
2023-02-02T03:06:24.838Z,68.44
2023-02-02T03:08:57.291Z,68.58
2023-02-02T03:11:25.957Z,68.29
2023-02-02T03:13:54.322Z,68.68
2023-02-02T03:16:22.655Z,68.17
2023-02-02T03:18:52.288Z,68.10
2023-02-02T03:21:20.729Z,68.14
2023-02-02T03:23:49.248Z,68.26
2023-02-02T03:26:17.707Z,68.13
2023-02-02T03:28:46.048Z,68.40
2023-02-02T03:31:14.916Z,68.21
2023-02-02T03:33:43.603Z,68.64
2023-02-02T03:36:14.508Z,68.57
2023-02-02T03:38:42.830Z,68.46
2023-02-02T03:41:11.143Z,68.16
2023-02-02T03:43:39.504Z,68.35
2023-02-02T03:46:07.847Z,68.21
2023-02-02T03:48:37.660Z,68.33
2023-02-02T03:51:09.732Z,67.94
2023-02-02T03:53:40.307Z,68.01
2023-02-02T03:56:08.772Z,68.27
2023-02-02T03:58:37.374Z,68.33
2023-02-02T04:01:06.786Z,68.11
2023-02-02T04:03:35.214Z,68.36
2023-02-02T04:06:03.624Z,68.59
2023-02-02T04:08:32.281Z,68.69
2023-02-02T04:11:02.486Z,69.00
2023-02-02T04:13:30.941Z,68.91
2023-02-02T04:16:00.639Z,69.37
2023-02-02T04:18:29.871Z,69.92
2023-02-02T04:20:59.530Z,69.83
2023-02-02T04:23:31.224Z,70.05
2023-02-02T04:26:02.204Z,69.65
2023-02-02T04:28:30.870Z,69.37
2023-02-02T04:30:59.225Z,69.29
2023-02-02T04:33:28.860Z,69.57
2023-02-02T04:35:57.380Z,69.43
2023-02-02T04:38:25.788Z,69.69
2023-02-02T04:40:54.453Z,69.52
2023-02-02T04:43:24.209Z,69.46
2023-02-02T04:45:57.599Z,69.39
2023-02-02T04:48:27.880Z,69.10
2023-02-02T04:51:00.183Z,69.14
2023-02-02T04:53:31.358Z,68.86
2023-02-02T04:55:59.878Z,68.98
2023-02-02T04:58:29.563Z,68.79
2023-02-02T05:00:58.029Z,68.69
2023-02-02T05:03:26.341Z,68.44
2023-02-02T05:06:02.516Z,67.98
2023-02-02T05:08:30.855Z,68.21
2023-02-02T05:10:59.155Z,68.08
2023-02-02T05:13:28.898Z,68.10
2023-02-02T05:15:57.168Z,68.08
2023-02-02T05:18:26.417Z,67.85
2023-02-02T05:20:55.014Z,68.53
2023-02-02T05:23:23.341Z,68.21
2023-02-02T05:25:53.992Z,67.84
2023-02-02T05:28:22.940Z,67.92
2023-02-02T05:30:53.056Z,68.24
2023-02-02T05:33:21.432Z,67.74
2023-02-02T05:35:50.475Z,67.53
2023-02-02T05:38:18.838Z,68.03
2023-02-02T05:40:49.918Z,67.88
2023-02-02T05:43:19.374Z,67.63
2023-02-02T05:45:49.077Z,67.87
2023-02-02T05:48:18.825Z,67.88
2023-02-02T05:50:56.809Z,67.74
2023-02-02T05:53:25.758Z,68.10
2023-02-02T05:55:54.082Z,67.91
2023-02-02T05:58:22.363Z,68.19
2023-02-02T06:00:50.990Z,68.49
2023-02-02T06:03:20.768Z,68.76
2023-02-02T06:05:49.170Z,68.97
2023-02-02T06:08:17.485Z,68.99
2023-02-02T06:10:45.881Z,69.35
2023-02-02T06:13:14.196Z,69.62
2023-02-02T06:15:43.230Z,69.42
2023-02-02T06:18:11.626Z,69.92
2023-02-02T06:20:41.264Z,70.54
2023-02-02T06:23:09.818Z,70.65
2023-02-02T06:25:38.164Z,70.31
2023-02-02T06:28:07.789Z,70.32
2023-02-02T06:30:36.219Z,70.91
2023-02-02T06:33:04.692Z,70.47
2023-02-02T06:35:33.041Z,70.55
2023-02-02T06:38:02.855Z,70.68
2023-02-02T06:40:31.282Z,71.09
2023-02-02T06:43:00.475Z,71.13
2023-02-02T06:45:29.973Z,70.69
2023-02-02T06:48:00.839Z,70.92
2023-02-02T06:50:29.191Z,71.29
2023-02-02T06:52:57.576Z,70.91
2023-02-02T06:55:29.118Z,71.32
2023-02-02T06:57:58.622Z,71.31
2023-02-02T07:00:27.723Z,71.11
2023-02-02T07:02:56.218Z,71.31
2023-02-02T07:05:25.199Z,71.44
2023-02-02T07:07:53.810Z,71.91
2023-02-02T07:11:09.491Z,71.42
2023-02-02T07:13:11.924Z,71.34
2023-02-02T07:15:41.228Z,71.91
2023-02-02T07:18:09.700Z,71.95
2023-02-02T07:20:38.018Z,71.77
2023-02-02T07:23:06.379Z,71.32
2023-02-02T07:25:34.768Z,71.85
2023-02-02T07:28:03.121Z,71.75
2023-02-02T07:30:33.386Z,71.52
2023-02-02T07:33:02.124Z,71.37
2023-02-02T07:35:30.432Z,71.42
2023-02-02T07:37:59.369Z,71.58
2023-02-02T07:40:27.835Z,71.31
2023-02-02T07:43:00.481Z,71.13
2023-02-02T07:45:28.928Z,70.63
2023-02-02T07:47:59.208Z,71.30
2023-02-02T07:50:28.993Z,71.06
2023-02-02T07:52:59.475Z,71.01
2023-02-02T07:55:28.313Z,70.78
2023-02-02T07:57:59.011Z,70.87
2023-02-02T08:00:28.012Z,70.87
2023-02-02T08:03:07.757Z,70.66
2023-02-02T08:05:36.082Z,71.11
2023-02-02T08:08:04.683Z,71.35
2023-02-02T08:10:32.949Z,70.97
2023-02-02T08:13:01.329Z,71.26
2023-02-02T08:15:29.704Z,71.00
2023-02-02T08:17:59.206Z,70.44
2023-02-02T08:20:28.924Z,70.77
2023-02-02T08:22:57.954Z,70.79
2023-02-02T08:25:26.950Z,71.01
2023-02-02T08:27:58.674Z,71.19
2023-02-02T08:30:27.104Z,71.32
2023-02-02T08:32:55.453Z,70.97
2023-02-02T08:35:24.174Z,71.14
2023-02-02T08:37:54.009Z,71.85
2023-02-02T08:40:22.375Z,71.98
2023-02-02T08:42:54.616Z,71.78
2023-02-02T08:46:13.694Z,71.74
2023-02-02T08:48:12.757Z,71.58
2023-02-02T08:50:41.367Z,71.71
2023-02-02T08:53:11.134Z,72.22
2023-02-02T08:55:39.430Z,72.51
2023-02-02T08:58:07.953Z,72.37
2023-02-02T09:00:36.326Z,73.01
2023-02-02T09:03:04.833Z,72.76
2023-02-02T09:05:33.411Z,73.03
2023-02-02T09:08:01.728Z,73.29
2023-02-02T09:10:31.997Z,73.65
2023-02-02T09:13:00.348Z,73.64
2023-02-02T09:15:28.630Z,73.43
2023-02-02T09:17:57.167Z,73.47
2023-02-02T09:20:26.146Z,73.54
2023-02-02T09:22:57.263Z,73.24
2023-02-02T09:25:27.474Z,73.52
2023-02-02T09:27:57.410Z,73.63
2023-02-02T09:30:25.753Z,73.20
2023-02-02T09:32:54.039Z,73.24
2023-02-02T09:35:22.975Z,73.17
2023-02-02T09:37:51.517Z,73.16
2023-02-02T09:40:21.240Z,73.54
2023-02-02T09:43:00.405Z,73.60
2023-02-02T09:45:37.371Z,73.55
2023-02-02T09:48:21.058Z,73.66
2023-02-02T09:50:54.313Z,72.91
2023-02-02T09:53:30.808Z,73.20
2023-02-02T09:56:02.749Z,72.92
2023-02-02T09:58:35.597Z,73.09
2023-02-02T10:01:08.814Z,73.21
2023-02-02T10:03:42.755Z,72.88
2023-02-02T10:06:24.803Z,73.12
2023-02-02T10:08:57.362Z,72.57
2023-02-02T10:11:33.800Z,73.12
2023-02-02T10:14:08.882Z,72.65
2023-02-02T10:16:41.975Z,72.34
2023-02-02T10:19:13.650Z,72.71
2023-02-02T10:21:49.727Z,72.18
2023-02-02T10:24:21.153Z,72.32
2023-02-02T10:26:52.780Z,72.28
2023-02-02T10:29:48.176Z,72.50
2023-02-02T10:32:23.733Z,72.36
2023-02-02T10:35:29.465Z,72.13
2023-02-02T10:38:02.647Z,71.99
2023-02-02T10:40:45.230Z,72.05
2023-02-02T10:43:48.893Z,72.32
2023-02-02T10:46:23.778Z,71.93
2023-02-02T10:48:59.925Z,72.00
2023-02-02T10:51:30.546Z,72.45
2023-02-02T10:54:05.056Z,72.73
2023-02-02T10:56:38.759Z,72.70
2023-02-02T10:59:11.899Z,72.50
2023-02-02T11:01:44.654Z,72.56
2023-02-02T11:04:31.629Z,72.88
2023-02-02T11:07:01.622Z,72.40
2023-02-02T11:09:36.708Z,72.41
2023-02-02T11:12:13.009Z,72.46
2023-02-02T11:14:46.326Z,72.73
2023-02-02T11:17:21.987Z,72.49
2023-02-02T11:19:51.321Z,72.49
2023-02-02T11:22:29.582Z,72.84
2023-02-02T11:25:01.279Z,72.69
2023-02-02T11:27:33.809Z,71.95
2023-02-02T11:30:13.213Z,72.33
2023-02-02T11:32:47.834Z,72.01
2023-02-02T11:35:22.501Z,72.93
2023-02-02T11:38:09.347Z,72.42
2023-02-02T11:40:39.775Z,72.74
2023-02-02T11:43:18.700Z,73.22
2023-02-02T11:45:54.571Z,72.91
2023-02-02T11:48:29.114Z,73.30
2023-02-02T11:50:59.723Z,73.32
2023-02-02T11:53:31.028Z,73.33
2023-02-02T11:56:02.179Z,74.00
2023-02-02T11:58:44.076Z,73.58
2023-02-02T12:01:25.199Z,73.91
2023-02-02T12:03:56.453Z,74.19
2023-02-02T12:06:27.112Z,74.05
2023-02-02T12:09:01.338Z,74.72
2023-02-02T12:11:41.452Z,74.69
2023-02-02T12:14:26.343Z,74.57
2023-02-02T12:17:07.802Z,74.58
2023-02-02T12:19:57.179Z,74.29
2023-02-02T12:22:46.427Z,74.59
2023-02-02T12:25:37.095Z,74.98
2023-02-02T12:28:16.454Z,74.70
2023-02-02T12:30:55.536Z,74.66
2023-02-02T12:33:35.040Z,74.92
2023-02-02T12:36:23.273Z,75.25
2023-02-02T12:39:10.150Z,74.52
2023-02-02T12:41:59.116Z,74.22
2023-02-02T12:44:38.355Z,74.48
2023-02-02T12:47:19.887Z,75.00
2023-02-02T12:50:06.053Z,75.01
2023-02-02T12:52:49.776Z,74.44
2023-02-02T12:55:27.313Z,74.70
2023-02-02T12:58:10.682Z,74.80
2023-02-02T13:01:01.982Z,74.73
2023-02-02T13:03:38.175Z,74.69
2023-02-02T13:06:21.442Z,75.09
2023-02-02T13:08:59.821Z,74.75
2023-02-02T13:11:40.049Z,75.09
2023-02-02T13:14:13.271Z,74.95
2023-02-02T13:16:48.463Z,75.66
2023-02-02T13:19:26.789Z,74.98
2023-02-02T13:21:59.012Z,75.50
2023-02-02T13:24:32.715Z,75.43
2023-02-02T13:27:04.111Z,76.07
2023-02-02T13:29:47.436Z,75.57
2023-02-02T13:32:24.459Z,76.13
2023-02-02T13:34:57.951Z,76.30
2023-02-02T13:37:32.131Z,76.12
2023-02-02T13:40:05.416Z,76.58
2023-02-02T13:42:42.174Z,76.60
2023-02-02T13:45:40.720Z,76.13
2023-02-02T13:48:24.350Z,76.26
2023-02-02T13:51:14.640Z,76.16
2023-02-02T13:54:18.776Z,76.49
2023-02-02T13:56:56.937Z,76.44
2023-02-02T13:59:42.759Z,76.69
2023-02-02T14:02:23.753Z,76.81
2023-02-02T14:04:57.376Z,76.63
2023-02-02T14:07:39.833Z,76.84
2023-02-02T14:10:24.622Z,77.33
2023-02-02T14:12:56.759Z,77.12
2023-02-02T14:15:45.502Z,76.99
2023-02-02T14:18:13.944Z,77.53
2023-02-02T14:20:48.031Z,77.45
2023-02-02T14:23:53.701Z,77.59
2023-02-02T14:26:42.955Z,77.89
2023-02-02T14:29:40.668Z,77.53
2023-02-02T14:32:32.417Z,78.00
2023-02-02T14:35:25.003Z,77.38
2023-02-02T14:37:58.551Z,77.77
2023-02-02T14:40:44.418Z,78.05
2023-02-02T14:43:41.425Z,78.27
2023-02-02T14:46:33.619Z,77.86
2023-02-02T14:49:24.093Z,78.39
2023-02-02T14:51:58.918Z,78.34
2023-02-02T14:54:35.069Z,78.06
2023-02-02T14:57:08.049Z,78.13
2023-02-02T14:59:39.871Z,78.66
2023-02-02T15:02:18.472Z,78.59
2023-02-02T15:04:52.394Z,78.54
2023-02-02T15:07:53.914Z,78.67
2023-02-02T15:10:59.373Z,78.71
2023-02-02T15:13:29.972Z,78.63
2023-02-02T15:16:10.835Z,78.88
2023-02-02T15:18:45.666Z,78.54
2023-02-02T15:21:22.122Z,78.60
2023-02-02T15:23:50.743Z,79.11
2023-02-02T15:26:25.073Z,79.25
2023-02-02T15:28:58.411Z,78.91
2023-02-02T15:31:34.070Z,79.05
2023-02-02T15:34:06.183Z,79.37
2023-02-02T15:36:38.628Z,79.36
2023-02-02T15:39:14.476Z,79.54
2023-02-02T15:41:44.923Z,79.14
2023-02-02T15:44:20.644Z,79.27
2023-02-02T15:46:50.205Z,79.21
2023-02-02T15:49:35.224Z,79.43
2023-02-02T15:52:13.817Z,79.77
2023-02-02T15:54:52.831Z,79.67
2023-02-02T15:57:27.451Z,79.08
2023-02-02T15:59:56.598Z,79.80
2023-02-02T16:02:35.225Z,79.54
2023-02-02T16:05:24.556Z,79.28
2023-02-02T16:08:04.962Z,79.47
2023-02-02T16:10:35.589Z,79.34
2023-02-02T16:13:06.884Z,79.68
2023-02-02T16:15:37.375Z,78.93
2023-02-02T16:18:16.379Z,79.43
2023-02-02T16:20:48.105Z,79.17
2023-02-02T16:23:24.048Z,79.53
2023-02-02T16:25:55.732Z,79.45
2023-02-02T16:28:24.904Z,79.69
2023-02-02T16:30:54.140Z,79.46
2023-02-02T16:33:36.972Z,80.01
2023-02-02T16:36:24.254Z,79.62
2023-02-02T16:38:54.428Z,79.64
2023-02-02T16:41:28.682Z,80.04
2023-02-02T16:43:57.225Z,79.53
2023-02-02T16:46:46.759Z,79.88
2023-02-02T16:49:18.617Z,79.45
2023-02-02T16:51:50.044Z,79.60
2023-02-02T16:54:21.326Z,79.69
2023-02-02T16:56:51.814Z,79.58
2023-02-02T16:59:25.289Z,80.10
2023-02-02T17:01:58.268Z,79.79
2023-02-02T17:04:28.898Z,79.86
2023-02-02T17:07:06.569Z,79.68
2023-02-02T17:09:37.478Z,79.82
2023-02-02T17:12:33.341Z,79.82
2023-02-02T17:15:24.445Z,79.99
2023-02-02T17:17:53.542Z,80.04
2023-02-02T17:20:22.913Z,79.81
2023-02-02T17:22:55.477Z,79.38
2023-02-02T17:25:29.480Z,79.43
2023-02-02T17:28:01.052Z,79.73
2023-02-02T17:30:30.874Z,79.94
2023-02-02T17:32:59.239Z,79.69
2023-02-02T17:35:37.019Z,79.72
2023-02-02T17:38:13.993Z,79.80
2023-02-02T17:40:42.289Z,79.68
2023-02-02T17:43:12.185Z,79.44
2023-02-02T17:45:40.784Z,79.54
2023-02-02T17:48:12.703Z,79.61
2023-02-02T17:50:42.299Z,79.50
2023-02-02T17:53:13.747Z,79.84
2023-02-02T17:55:44.753Z,79.74
2023-02-02T17:58:17.071Z,79.44
2023-02-02T18:00:47.793Z,79.47
2023-02-02T18:03:22.424Z,79.09
2023-02-02T18:05:51.148Z,79.20
2023-02-02T18:08:21.010Z,79.68
2023-02-02T18:10:49.864Z,79.56
2023-02-02T18:13:21.126Z,79.76
2023-02-02T18:15:50.282Z,79.40
2023-02-02T18:18:18.626Z,79.13
2023-02-02T18:20:48.277Z,79.41
2023-02-02T18:23:18.070Z,79.24
2023-02-02T18:25:48.341Z,78.77
2023-02-02T18:28:17.979Z,79.38
2023-02-02T18:30:47.421Z,79.25
2023-02-02T18:33:17.819Z,78.78
2023-02-02T18:35:47.479Z,79.19
2023-02-02T18:38:16.169Z,79.21
2023-02-02T18:40:44.661Z,79.30
2023-02-02T18:43:14.428Z,78.99
2023-02-02T18:45:42.761Z,79.10
2023-02-02T18:48:11.042Z,79.23
2023-02-02T18:50:39.387Z,79.09
2023-02-02T18:53:07.781Z,79.78
2023-02-02T18:55:38.381Z,79.95
2023-02-02T18:58:10.661Z,79.24
2023-02-02T19:00:40.548Z,79.33
2023-02-02T19:03:08.957Z,79.77
2023-02-02T19:05:56.387Z,79.92
2023-02-02T19:08:24.728Z,80.06
2023-02-02T19:11:00.327Z,80.02
2023-02-02T19:13:29.967Z,79.86
2023-02-02T19:16:01.018Z,80.36
2023-02-02T19:18:32.596Z,80.24
2023-02-02T19:21:00.937Z,79.89
2023-02-02T19:23:32.221Z,80.02
2023-02-02T19:26:00.699Z,80.55
2023-02-02T19:28:30.805Z,80.60
2023-02-02T19:31:02.446Z,80.38
2023-02-02T19:33:38.866Z,80.90
2023-02-02T19:36:14.161Z,80.57
2023-02-02T19:38:42.501Z,80.25
2023-02-02T19:41:18.373Z,80.77
2023-02-02T19:43:48.712Z,80.80
2023-02-02T19:46:22.657Z,81.03
2023-02-02T19:48:54.892Z,80.73
2023-02-02T19:51:37.258Z,81.20
2023-02-02T19:54:16.855Z,81.07
2023-02-02T19:56:45.228Z,81.12
2023-02-02T19:59:18.899Z,80.86
2023-02-02T20:01:50.715Z,80.88
2023-02-02T20:04:20.872Z,80.93
2023-02-02T20:06:59.188Z,81.21
2023-02-02T20:09:34.581Z,81.10
2023-02-02T20:12:19.466Z,81.27
2023-02-02T20:14:49.219Z,81.10
2023-02-02T20:17:27.424Z,81.04
2023-02-02T20:19:55.803Z,81.07
2023-02-02T20:22:28.246Z,81.22
2023-02-02T20:24:57.516Z,81.56
2023-02-02T20:27:28.347Z,81.36
2023-02-02T20:30:02.047Z,81.65
2023-02-02T20:32:41.280Z,81.74
2023-02-02T20:35:23.691Z,81.25
2023-02-02T20:37:52.374Z,81.64
2023-02-02T20:40:26.010Z,81.68
2023-02-02T20:42:55.158Z,81.41
2023-02-02T20:45:23.743Z,82.09
2023-02-02T20:47:54.079Z,81.49
2023-02-02T20:50:23.873Z,81.40
2023-02-02T20:52:59.637Z,82.05
2023-02-02T20:55:28.359Z,81.72
2023-02-02T20:57:56.712Z,81.88
2023-02-02T21:00:27.670Z,82.23
2023-02-02T21:02:57.862Z,82.27
2023-02-02T21:05:26.667Z,82.13
2023-02-02T21:07:55.634Z,82.29
2023-02-02T21:10:25.525Z,82.09
2023-02-02T21:12:54.100Z,82.28
2023-02-02T21:15:22.823Z,82.43
2023-02-02T21:17:51.180Z,82.34
2023-02-02T21:20:21.472Z,82.46
2023-02-02T21:22:50.098Z,82.61
2023-02-02T21:25:18.531Z,82.25
2023-02-02T21:27:47.075Z,82.27
2023-02-02T21:30:15.759Z,82.25
2023-02-02T21:32:44.136Z,82.29
2023-02-02T21:35:14.179Z,82.63
2023-02-02T21:37:54.976Z,82.28
2023-02-02T21:40:34.456Z,82.62
2023-02-02T21:43:12.543Z,82.00
2023-02-02T21:45:43.979Z,82.13
2023-02-02T21:48:33.930Z,82.22
2023-02-02T21:51:18.012Z,82.13
2023-02-02T21:53:47.713Z,82.29
2023-02-02T21:56:27.384Z,82.69
2023-02-02T21:58:59.060Z,82.66
2023-02-02T22:01:34.032Z,82.57
2023-02-02T22:04:02.406Z,82.21
2023-02-02T22:06:33.851Z,82.62
2023-02-02T22:09:14.648Z,82.31
2023-02-02T22:11:46.958Z,82.26
2023-02-02T22:14:20.405Z,82.64
2023-02-02T22:16:51.721Z,82.17
2023-02-02T22:19:33.863Z,82.81
2023-02-02T22:22:27.130Z,82.50
2023-02-02T22:25:00.807Z,82.59
2023-02-02T22:27:41.736Z,82.64
2023-02-02T22:30:25.505Z,82.61
2023-02-02T22:32:54.221Z,82.24
2023-02-02T22:35:23.123Z,82.29
2023-02-02T22:37:52.179Z,82.58
2023-02-02T22:40:23.501Z,82.65
2023-02-02T22:42:52.900Z,82.62
2023-02-02T22:45:21.684Z,82.70
2023-02-02T22:48:00.249Z,82.15
2023-02-02T22:50:30.508Z,82.18
2023-02-02T22:52:59.381Z,82.68
2023-02-02T22:55:29.491Z,82.34
2023-02-02T22:57:58.217Z,82.64
2023-02-02T23:00:28.951Z,82.29
2023-02-02T23:02:58.432Z,82.36
2023-02-02T23:05:28.212Z,82.09
2023-02-02T23:07:57.140Z,82.06
2023-02-02T23:10:29.575Z,82.46
2023-02-02T23:12:59.506Z,82.71
2023-02-02T23:15:28.257Z,82.16
2023-02-02T23:17:57.157Z,82.11
2023-02-02T23:26:11.478Z,81.99
2023-02-02T23:28:41.197Z,82.39
2023-02-02T23:31:09.670Z,82.50
2023-02-02T23:33:38.148Z,82.21
2023-02-02T23:36:07.184Z,82.43
2023-02-02T23:38:35.776Z,82.08
2023-02-02T23:41:04.349Z,82.15
2023-02-02T23:43:32.811Z,81.96
2023-02-02T23:46:02.525Z,82.10
2023-02-02T23:48:30.996Z,82.48
2023-02-02T23:51:00.462Z,82.02
2023-02-02T23:53:29.077Z,81.88
2023-02-02T23:55:57.568Z,82.03
2023-02-02T23:58:25.928Z,82.34
